createdAt,value
2023-04-21T00:00:16.743Z,25.00
2023-04-21T00:02:46.549Z,26.70
2023-04-21T00:05:14.241Z,27.30
2023-04-21T00:07:42.427Z,32.27
2023-04-21T00:10:10.555Z,28.50
2023-04-21T00:12:38.268Z,31.43
2023-04-21T00:15:06.911Z,31.30
2023-04-21T00:17:35.929Z,28.40
2023-04-21T00:20:04.550Z,30.30
2023-04-21T00:22:32.021Z,26.87
2023-04-21T00:24:59.459Z,28.17
2023-04-21T00:27:26.921Z,31.73
2023-04-21T00:29:54.347Z,30.10
2023-04-21T00:32:21.811Z,30.60
2023-04-21T00:34:50.649Z,34.93
2023-04-21T00:37:18.108Z,29.23
2023-04-21T00:39:45.593Z,30.20
2023-04-21T00:42:16.336Z,28.23
2023-04-21T00:44:43.782Z,30.00
2023-04-21T00:47:11.569Z,29.27
2023-04-21T00:49:39.120Z,28.57
2023-04-21T00:52:08.038Z,30.37
2023-04-21T00:54:36.548Z,30.13
2023-04-21T00:57:04.640Z,30.93
2023-04-21T00:59:32.138Z,33.47
2023-04-21T01:01:59.735Z,30.63
2023-04-21T01:04:27.251Z,32.67
2023-04-21T01:06:54.791Z,31.80
2023-04-21T01:09:23.678Z,30.03
2023-04-21T01:12:03.482Z,38.67
2023-04-21T01:14:31.021Z,30.03
2023-04-21T01:16:59.157Z,30.50
2023-04-21T01:19:27.897Z,32.93
2023-04-21T01:21:57.544Z,35.47
2023-04-21T01:24:25.503Z,32.50
2023-04-21T01:26:52.947Z,34.17
2023-04-21T01:29:20.616Z,32.93
2023-04-21T01:31:48.280Z,32.90
2023-04-21T01:34:16.116Z,33.00
2023-04-21T01:36:43.569Z,36.83
2023-04-21T01:39:12.390Z,35.43
2023-04-21T01:41:39.828Z,38.13
2023-04-21T01:44:07.273Z,40.67
2023-04-21T01:46:34.797Z,36.87
2023-04-21T01:49:02.272Z,32.60
2023-04-21T01:51:29.781Z,34.13
2023-04-21T01:53:57.213Z,33.33
2023-04-21T01:56:25.998Z,33.33
2023-04-21T01:58:53.548Z,36.97
2023-04-21T02:01:21.073Z,39.60
2023-04-21T02:03:48.831Z,35.10
2023-04-21T02:06:17.756Z,38.07
2023-04-21T02:08:45.238Z,35.40
2023-04-21T02:11:12.722Z,33.30
2023-04-21T02:13:41.824Z,34.97
2023-04-21T02:16:13.957Z,39.40
2023-04-21T02:18:41.750Z,34.87
2023-04-21T02:21:09.182Z,36.87
2023-04-21T02:23:36.682Z,37.67
2023-04-21T02:26:04.137Z,36.30
2023-04-21T02:28:31.613Z,37.20
2023-04-21T02:31:00.463Z,37.33
2023-04-21T02:33:28.001Z,34.73
2023-04-21T02:35:55.627Z,38.03
2023-04-21T02:38:23.066Z,39.43
2023-04-21T02:40:50.544Z,41.87
2023-04-21T02:43:18.120Z,41.13
2023-04-21T02:45:45.944Z,41.40
2023-04-21T02:48:14.788Z,38.37
2023-04-21T02:50:43.734Z,38.03
2023-04-21T02:53:11.165Z,39.70
2023-04-21T02:55:38.613Z,34.73
2023-04-21T02:58:06.087Z,40.80
2023-04-21T03:00:33.581Z,38.40
2023-04-21T03:03:01.698Z,36.83
2023-04-21T03:05:30.598Z,36.27
2023-04-21T03:07:58.035Z,37.60
2023-04-21T03:10:25.664Z,42.50
2023-04-21T03:12:53.507Z,39.37
2023-04-21T03:15:22.563Z,37.70
2023-04-21T03:17:50.088Z,37.20
2023-04-21T03:20:17.813Z,40.00
2023-04-21T03:22:46.610Z,35.10
2023-04-21T03:25:14.273Z,38.33
2023-04-21T03:27:41.732Z,41.90
2023-04-21T03:30:10.324Z,40.77
2023-04-21T03:32:37.787Z,41.10
2023-04-21T03:35:05.791Z,39.37
2023-04-21T03:37:33.235Z,37.47
2023-04-21T03:40:02.080Z,38.97
2023-04-21T03:42:30.104Z,41.17
2023-04-21T03:44:57.606Z,39.63
2023-04-21T03:47:25.363Z,42.00
2023-04-21T03:49:52.868Z,40.43
2023-04-21T03:52:20.329Z,43.90
2023-04-21T03:54:48.016Z,42.10
2023-04-21T03:57:17.116Z,46.57
2023-04-21T03:59:45.029Z,38.77
2023-04-21T04:02:12.607Z,41.87
2023-04-21T04:04:40.329Z,35.00
2023-04-21T04:07:09.966Z,42.20
2023-04-21T04:09:37.475Z,42.43
2023-04-21T04:12:05.432Z,43.30
2023-04-21T04:14:34.270Z,40.93
2023-04-21T04:17:01.718Z,36.30
2023-04-21T04:19:32.146Z,40.77
2023-04-21T04:22:00.584Z,36.23
2023-04-21T04:24:28.378Z,38.40
2023-04-21T04:26:57.804Z,37.20
2023-04-21T04:29:25.571Z,40.67
2023-04-21T04:31:54.392Z,36.57
2023-04-21T04:34:23.119Z,34.17
2023-04-21T04:36:53.741Z,42.23
2023-04-21T04:39:22.150Z,38.63
2023-04-21T04:41:49.614Z,34.93
2023-04-21T04:44:17.966Z,38.53
2023-04-21T04:46:46.412Z,39.20
2023-04-21T04:49:15.391Z,41.50
2023-04-21T04:51:42.827Z,39.53
2023-04-21T04:54:10.303Z,41.63
2023-04-21T04:56:37.812Z,40.13
2023-04-21T04:59:05.292Z,39.13
2023-04-21T05:01:32.794Z,36.20
2023-04-21T05:04:00.412Z,38.57
2023-04-21T05:06:29.395Z,42.93
2023-04-21T05:08:57.058Z,43.20
2023-04-21T05:11:24.603Z,43.90
2023-04-21T05:13:52.089Z,37.87
2023-04-21T05:16:19.594Z,40.53
2023-04-21T05:18:47.038Z,37.43
2023-04-21T05:21:14.488Z,37.80
2023-04-21T05:23:43.240Z,36.90
2023-04-21T05:26:10.695Z,42.37
2023-04-21T05:28:38.161Z,41.20
2023-04-21T05:31:06.862Z,35.33
2023-04-21T05:33:34.293Z,42.80
2023-04-21T05:36:01.730Z,33.83
2023-04-21T05:38:29.191Z,32.80
2023-04-21T05:41:06.827Z,31.57
2023-04-21T05:43:34.411Z,37.67
2023-04-21T05:46:01.937Z,37.43
2023-04-21T05:48:29.559Z,35.90
2023-04-21T05:50:57.297Z,38.37
2023-04-21T05:53:24.771Z,37.80
2023-04-21T05:55:52.252Z,36.30
2023-04-21T05:58:21.072Z,35.73
2023-04-21T06:00:49.246Z,33.97
2023-04-21T06:03:16.904Z,32.70
2023-04-21T06:05:46.971Z,33.03
2023-04-21T06:08:14.688Z,32.90
2023-04-21T06:10:42.547Z,39.97
2023-04-21T06:13:09.985Z,33.97
2023-04-21T06:15:38.781Z,43.60
2023-04-21T06:18:06.592Z,37.77
2023-04-21T06:20:34.095Z,37.40
2023-04-21T06:23:01.552Z,38.93
2023-04-21T06:25:30.091Z,37.60
2023-04-21T06:27:57.542Z,40.67
2023-04-21T06:30:25.053Z,35.07
2023-04-21T06:32:53.848Z,34.20
2023-04-21T06:35:21.850Z,37.43
2023-04-21T06:37:49.304Z,40.10
2023-04-21T06:40:16.812Z,37.40
2023-04-21T06:42:44.316Z,38.57
2023-04-21T06:45:12.374Z,39.67
2023-04-21T06:47:39.866Z,35.23
2023-04-21T06:50:09.933Z,36.97
2023-04-21T06:52:37.372Z,37.27
2023-04-21T06:55:05.617Z,42.70
2023-04-21T06:57:33.113Z,37.00
2023-04-21T07:00:00.601Z,36.70
2023-04-21T07:02:28.183Z,32.20
2023-04-21T07:04:55.755Z,42.53
2023-04-21T07:07:24.587Z,31.40
2023-04-21T07:09:52.033Z,33.97
2023-04-21T07:12:19.562Z,37.13
2023-04-21T07:14:47.004Z,32.37
2023-04-21T07:17:14.449Z,32.50
2023-04-21T07:19:41.916Z,34.43
2023-04-21T07:22:09.447Z,33.53
2023-04-21T07:24:39.261Z,29.10
2023-04-21T07:27:06.712Z,39.90
2023-04-21T07:29:34.265Z,35.23
2023-04-21T07:32:01.868Z,33.13
2023-04-21T07:34:29.358Z,30.53
2023-04-21T07:36:57.321Z,32.40
2023-04-21T07:39:24.826Z,29.77
2023-04-21T07:41:53.891Z,30.17
2023-04-21T07:44:21.337Z,30.00
2023-04-21T07:46:48.848Z,30.30
2023-04-21T07:49:16.657Z,30.30
2023-04-21T07:51:44.081Z,33.70
2023-04-21T07:54:11.588Z,34.03
2023-04-21T07:56:40.065Z,34.00
2023-04-21T07:59:08.848Z,29.93
2023-04-21T08:01:36.309Z,31.00
2023-04-21T08:04:03.950Z,26.80
2023-04-21T08:06:33.511Z,30.80
2023-04-21T08:09:01.153Z,33.20
2023-04-21T08:11:29.069Z,30.50
2023-04-21T08:13:57.548Z,29.63
2023-04-21T08:16:26.457Z,28.10
2023-04-21T08:18:54.029Z,28.20
2023-04-21T08:21:21.704Z,30.03
2023-04-21T08:23:49.269Z,28.23
2023-04-21T08:26:16.761Z,29.70
2023-04-21T08:28:44.227Z,27.03
2023-04-21T08:31:11.701Z,25.57
2023-04-21T08:33:49.812Z,30.73
2023-04-21T08:36:29.002Z,28.00
2023-04-21T08:39:00.465Z,28.87
2023-04-21T08:41:28.127Z,25.97
2023-04-21T08:43:55.587Z,28.47
2023-04-21T08:46:24.170Z,27.57
2023-04-21T08:48:55.055Z,27.83
2023-04-21T08:51:24.778Z,27.70
2023-04-21T08:53:52.741Z,30.00
2023-04-21T08:56:20.267Z,23.93
2023-04-21T08:58:47.744Z,26.97
2023-04-21T09:01:15.251Z,28.47
2023-04-21T09:03:43.015Z,25.80
2023-04-21T09:06:12.755Z,25.60
2023-04-21T09:08:43.312Z,25.30
2023-04-21T09:11:14.742Z,24.83
2023-04-21T09:13:43.568Z,24.17
2023-04-21T09:16:17.223Z,26.07
2023-04-21T09:18:45.144Z,23.43
2023-04-21T09:21:15.700Z,29.73
2023-04-21T09:23:44.173Z,25.07
2023-04-21T09:26:12.384Z,27.97
2023-04-21T09:28:42.258Z,25.87
2023-04-21T09:31:15.355Z,25.20
2023-04-21T09:33:57.954Z,22.40
2023-04-21T09:36:30.374Z,22.63
2023-04-21T09:41:29.328Z,30.27
2023-04-21T09:44:01.200Z,27.00
2023-04-21T09:46:30.587Z,26.47
2023-04-21T09:49:00.396Z,24.73
2023-04-21T09:51:49.112Z,25.90
2023-04-21T09:56:51.104Z,24.00
2023-04-21T09:59:23.431Z,22.93
2023-04-21T10:01:52.425Z,25.80
2023-04-21T10:04:21.416Z,26.60
2023-04-21T10:06:50.712Z,23.97
2023-04-21T10:09:19.461Z,23.97
2023-04-21T10:11:46.987Z,25.90
2023-04-21T10:14:14.811Z,24.60
2023-04-21T10:16:43.479Z,23.93
2023-04-21T10:19:27.747Z,22.63
2023-04-21T10:21:58.023Z,25.80
2023-04-21T10:24:25.706Z,23.03
2023-04-21T10:26:55.023Z,22.77
2023-04-21T10:29:40.045Z,20.07
2023-04-21T10:32:11.739Z,20.17
2023-04-21T10:34:39.914Z,24.30
2023-04-21T10:37:19.482Z,22.37
2023-04-21T10:39:54.571Z,22.20
2023-04-21T10:42:31.189Z,18.80
2023-04-21T10:45:04.006Z,18.57
2023-04-21T10:47:38.077Z,20.73
2023-04-21T10:50:13.726Z,24.50
2023-04-21T10:52:44.898Z,19.47
2023-04-21T10:55:15.588Z,19.67
2023-04-21T10:57:45.435Z,17.50
2023-04-21T11:00:17.399Z,16.80
2023-04-21T11:02:45.346Z,17.77
2023-04-21T11:05:13.115Z,20.67
2023-04-21T11:07:41.952Z,18.27
2023-04-21T11:10:11.116Z,21.27
2023-04-21T11:12:40.406Z,20.00
2023-04-21T11:15:10.165Z,16.67
2023-04-21T11:17:39.593Z,17.57
2023-04-21T11:20:08.692Z,17.77
2023-04-21T11:22:37.739Z,17.00
2023-04-21T11:25:08.065Z,18.43
2023-04-21T11:27:35.522Z,16.60
2023-04-21T11:30:04.714Z,16.50
2023-04-21T11:32:32.210Z,19.07
2023-04-21T11:34:59.748Z,20.00
2023-04-21T11:37:28.019Z,20.30
2023-04-21T11:39:59.449Z,15.60
2023-04-21T11:42:28.697Z,16.70
2023-04-21T11:44:57.387Z,17.63
2023-04-21T11:47:26.120Z,15.93
2023-04-21T11:49:56.044Z,17.17
2023-04-21T11:52:25.292Z,16.47
2023-04-21T11:54:56.770Z,19.13
2023-04-21T11:57:25.290Z,17.17
2023-04-21T11:59:54.350Z,17.07
2023-04-21T12:02:24.359Z,14.83
2023-04-21T12:05:02.387Z,12.73
2023-04-21T12:07:31.080Z,14.80
2023-04-21T12:09:58.927Z,14.03
2023-04-21T12:12:26.685Z,14.93
2023-04-21T12:14:55.510Z,16.63
2023-04-21T12:17:23.083Z,15.70
2023-04-21T12:19:50.580Z,15.63
2023-04-21T12:22:19.197Z,15.33
2023-04-21T12:24:47.089Z,13.80
2023-04-21T12:27:14.784Z,13.00
2023-04-21T12:29:42.671Z,13.50
2023-04-21T12:32:11.556Z,15.40
2023-04-21T12:34:39.019Z,13.50
2023-04-21T12:37:06.724Z,13.60
2023-04-21T12:39:34.523Z,12.27
2023-04-21T12:42:02.622Z,16.63
2023-04-21T12:44:30.673Z,13.13
2023-04-21T12:46:58.796Z,14.50
2023-04-21T12:49:27.745Z,16.73
2023-04-21T12:51:55.308Z,17.60
2023-04-21T12:54:22.824Z,13.30
2023-04-21T12:56:50.292Z,11.43
2023-04-21T12:59:17.840Z,11.70
2023-04-21T13:01:45.328Z,11.80
2023-04-21T13:04:13.146Z,11.67
2023-04-21T13:06:42.208Z,13.37
2023-04-21T13:09:09.755Z,12.67
2023-04-21T13:12:06.896Z,13.37
2023-04-21T13:14:34.412Z,11.37
2023-04-21T13:17:02.063Z,12.67
2023-04-21T13:19:30.065Z,10.17
2023-04-21T13:21:59.284Z,11.00
2023-04-21T13:24:26.935Z,11.00
2023-04-21T13:26:54.601Z,10.27
2023-04-21T13:29:22.057Z,11.20
2023-04-21T13:31:49.561Z,11.70
2023-04-21T13:34:17.038Z,8.90
2023-04-21T13:36:44.491Z,9.30
2023-04-21T13:39:13.341Z,11.80
2023-04-21T13:41:40.787Z,11.97
2023-04-21T13:44:08.332Z,10.70
2023-04-21T13:46:36.206Z,9.17
2023-04-21T13:49:03.758Z,12.60
2023-04-21T13:51:32.148Z,13.30
2023-04-21T13:53:59.641Z,7.50
2023-04-21T13:56:28.511Z,9.53
2023-04-21T13:58:56.002Z,8.70
2023-04-21T14:01:23.520Z,10.47
2023-04-21T14:03:51.222Z,10.17
2023-04-21T14:06:18.908Z,8.33
2023-04-21T14:08:46.512Z,8.37
2023-04-21T14:11:13.993Z,8.80
2023-04-21T14:13:52.279Z,8.40
2023-04-21T14:16:27.295Z,8.80
2023-04-21T14:18:54.828Z,8.07
2023-04-21T14:21:22.423Z,9.50
2023-04-21T14:23:49.873Z,9.53
2023-04-21T14:26:17.390Z,9.53
2023-04-21T14:28:46.266Z,7.10
2023-04-21T14:31:13.799Z,8.30
2023-04-21T14:33:41.625Z,7.60
2023-04-21T14:36:10.338Z,8.10
2023-04-21T14:38:37.869Z,9.90
2023-04-21T14:41:05.751Z,6.97
2023-04-21T14:43:33.456Z,10.30
2023-04-21T14:46:02.339Z,9.17
2023-04-21T14:48:29.936Z,8.13
2023-04-21T14:50:57.935Z,7.60
2023-04-21T14:53:25.688Z,9.33
2023-04-21T14:55:54.713Z,7.10
2023-04-21T14:58:22.508Z,7.70
2023-04-21T15:00:50.084Z,6.00
2023-04-21T15:03:19.075Z,7.83
2023-04-21T15:05:46.612Z,6.53
2023-04-21T15:08:17.967Z,5.57
2023-04-21T15:10:45.592Z,9.30
2023-04-21T15:13:13.221Z,7.80
2023-04-21T15:15:40.952Z,6.50
2023-04-21T15:18:08.850Z,7.10
2023-04-21T15:20:44.293Z,6.70
2023-04-21T15:23:12.430Z,7.80
2023-04-21T15:25:40.196Z,9.60
2023-04-21T15:28:08.488Z,7.83
2023-04-21T15:30:36.283Z,6.77
2023-04-21T15:33:03.880Z,12.07
2023-04-21T15:35:31.360Z,6.13
2023-04-21T15:38:00.243Z,8.27
2023-04-21T15:40:27.778Z,9.60
2023-04-21T15:42:55.320Z,8.97
2023-04-21T15:45:22.848Z,7.83
2023-04-21T15:47:50.480Z,6.87
2023-04-21T15:50:18.094Z,7.97
2023-04-21T15:52:45.777Z,6.87
2023-04-21T15:55:15.234Z,8.20
2023-04-21T15:57:42.782Z,6.80
2023-04-21T16:00:11.242Z,7.50
2023-04-21T16:02:38.880Z,6.00
2023-04-21T16:05:07.796Z,6.20
2023-04-21T16:07:38.679Z,6.60
2023-04-21T16:10:07.289Z,7.20
2023-04-21T16:12:36.172Z,6.03
2023-04-21T16:15:20.242Z,6.73
2023-04-21T16:17:50.982Z,6.33
2023-04-21T16:20:18.616Z,6.60
2023-04-21T16:22:46.207Z,6.03
2023-04-21T16:25:14.283Z,6.57
2023-04-21T16:27:43.350Z,7.07
2023-04-21T16:30:11.459Z,8.00
2023-04-21T16:32:39.192Z,7.30
2023-04-21T16:35:08.607Z,7.67
2023-04-21T16:37:38.045Z,6.77
2023-04-21T16:40:07.390Z,7.67
2023-04-21T16:42:35.109Z,8.13
2023-04-21T16:45:04.547Z,5.93
2023-04-21T16:47:33.810Z,6.60
2023-04-21T16:50:01.395Z,6.97
2023-04-21T16:52:28.847Z,5.50
2023-04-21T16:54:56.358Z,5.17
2023-04-21T16:57:25.052Z,5.87
2023-04-21T16:59:52.805Z,6.37
2023-04-21T17:02:21.744Z,6.10
2023-04-21T17:04:49.246Z,5.90
2023-04-21T17:07:16.832Z,6.57
2023-04-21T17:09:44.342Z,5.10
2023-04-21T17:12:11.807Z,5.80
2023-04-21T17:14:39.450Z,5.10
2023-04-21T17:17:07.344Z,5.30
2023-04-21T17:19:36.482Z,3.80
2023-04-21T17:22:03.914Z,6.00
2023-04-21T17:24:44.781Z,6.57
2023-04-21T17:27:20.343Z,4.50
2023-04-21T17:29:47.875Z,5.47
2023-04-21T17:32:15.461Z,11.47
2023-04-21T17:34:44.435Z,6.03
2023-04-21T17:37:11.901Z,10.60
2023-04-21T17:39:39.524Z,6.57
2023-04-21T17:42:07.121Z,5.20
2023-04-21T17:44:34.997Z,6.53
2023-04-21T17:47:03.929Z,7.90
2023-04-21T17:49:31.469Z,6.23
2023-04-21T17:52:00.714Z,7.90
2023-04-21T17:54:37.341Z,6.00
2023-04-21T17:57:06.869Z,5.23
2023-04-21T17:59:35.307Z,6.37
2023-04-21T18:02:03.820Z,3.23
2023-04-21T18:04:34.221Z,2.30
2023-04-21T18:07:04.276Z,2.63
2023-04-21T18:09:33.168Z,2.10
2023-04-21T18:12:01.862Z,1.97
2023-04-21T18:14:31.285Z,2.73
2023-04-21T18:16:58.937Z,1.80
2023-04-21T18:19:26.424Z,6.80
2023-04-21T18:21:53.961Z,2.50
2023-04-21T18:24:22.844Z,2.10
2023-04-21T18:26:51.170Z,3.73
2023-04-21T18:29:19.440Z,2.80
2023-04-21T18:31:46.988Z,2.80
2023-04-21T18:34:15.098Z,5.37
2023-04-21T18:36:43.430Z,3.23
2023-04-21T18:39:11.441Z,3.67
2023-04-21T18:41:40.442Z,5.80
2023-04-21T18:44:07.969Z,3.73
2023-04-21T18:46:35.498Z,4.13
2023-04-21T18:49:02.993Z,5.37
2023-04-21T18:51:31.566Z,6.70
2023-04-21T18:53:59.068Z,4.50
2023-04-21T18:56:26.828Z,5.57
2023-04-21T18:58:55.733Z,6.93
2023-04-21T19:01:23.191Z,5.67
2023-04-21T19:03:50.979Z,4.97
2023-04-21T19:06:18.571Z,4.43
2023-04-21T19:08:46.001Z,5.43
2023-04-21T19:11:14.796Z,4.63
2023-04-21T19:13:42.244Z,5.10
2023-04-21T19:16:12.133Z,4.87
2023-04-21T19:18:39.911Z,5.10
2023-04-21T19:21:10.282Z,7.20
2023-04-21T19:23:37.727Z,4.93
2023-04-21T19:26:05.646Z,3.90
2023-04-21T19:28:33.190Z,6.57
2023-04-21T19:31:00.656Z,4.20
2023-04-21T19:33:29.593Z,8.10
2023-04-21T19:35:58.232Z,4.93
2023-04-21T19:38:25.784Z,7.37
2023-04-21T19:40:54.720Z,5.87
2023-04-21T19:43:23.999Z,5.40
2023-04-21T19:45:51.823Z,6.20
2023-04-21T19:48:19.350Z,6.07
2023-04-21T19:50:48.178Z,5.60
2023-04-21T19:53:15.620Z,5.77
2023-04-21T19:55:43.200Z,5.53
2023-04-21T19:58:10.775Z,6.67
2023-04-21T20:00:38.266Z,6.60
2023-04-21T20:03:07.552Z,7.40
2023-04-21T20:05:35.360Z,5.30
2023-04-21T20:08:04.258Z,5.73
2023-04-21T20:10:31.766Z,3.77
2023-04-21T20:12:59.209Z,4.47
2023-04-21T20:15:26.904Z,5.13
2023-04-21T20:17:54.518Z,4.27
2023-04-21T20:20:22.180Z,4.57
2023-04-21T20:22:49.630Z,5.23
2023-04-21T20:25:18.884Z,4.27
2023-04-21T20:27:46.583Z,4.53
2023-04-21T20:30:14.331Z,5.40
2023-04-21T20:32:41.848Z,6.93
2023-04-21T20:35:11.509Z,5.00
2023-04-21T20:37:38.958Z,4.23
2023-04-21T20:40:08.197Z,5.60
2023-04-21T20:42:37.179Z,4.77
2023-04-21T20:45:06.053Z,7.90
2023-04-21T20:47:33.738Z,8.13
2023-04-21T20:50:01.349Z,7.73
2023-04-21T20:52:28.946Z,5.23
2023-04-21T20:54:56.541Z,5.50
2023-04-21T20:57:26.669Z,4.50
2023-04-21T20:59:55.480Z,6.27
2023-04-21T21:02:23.086Z,5.60
2023-04-21T21:04:50.713Z,4.80
2023-04-21T21:07:18.228Z,3.90
2023-04-21T21:09:45.698Z,5.70
2023-04-21T21:12:13.185Z,5.00
2023-04-21T21:14:40.822Z,5.87
2023-04-21T21:17:09.859Z,5.80
2023-04-21T21:19:37.710Z,6.23
2023-04-21T21:22:05.365Z,5.27
2023-04-21T21:24:32.811Z,5.20
2023-04-21T21:27:01.400Z,4.93
2023-04-21T21:29:29.732Z,4.70
2023-04-21T21:31:57.209Z,6.43
2023-04-21T21:34:26.124Z,15.43
2023-04-21T21:36:53.590Z,12.30
2023-04-21T21:39:21.224Z,13.00
2023-04-21T21:41:48.677Z,9.50
2023-04-21T21:44:16.114Z,8.10
2023-04-21T21:46:44.127Z,9.00
2023-04-21T21:49:11.882Z,8.13
2023-04-21T21:51:40.732Z,12.40
2023-04-21T21:54:08.874Z,5.93
2023-04-21T21:56:36.628Z,8.30
2023-04-21T21:59:04.103Z,5.80
2023-04-21T22:01:31.635Z,6.70
2023-04-21T22:03:59.207Z,4.90
2023-04-21T22:06:28.809Z,6.73
2023-04-21T22:08:57.687Z,6.60
2023-04-21T22:11:25.315Z,5.77
2023-04-21T22:13:52.796Z,5.10
2023-04-21T22:16:20.411Z,5.03
2023-04-21T22:18:48.340Z,4.70
2023-04-21T22:21:15.991Z,6.27
2023-04-21T22:23:43.539Z,4.70
2023-04-21T22:26:12.474Z,8.23
2023-04-21T22:28:41.625Z,5.93
2023-04-21T22:31:10.247Z,6.10
2023-04-21T22:33:38.175Z,7.23
2023-04-21T22:36:08.559Z,7.20
2023-04-21T22:38:37.542Z,7.13
2023-04-21T22:41:05.248Z,5.73
2023-04-21T22:43:34.121Z,6.10
2023-04-21T22:46:02.198Z,7.50
2023-04-21T22:48:30.177Z,9.33
2023-04-21T22:50:58.846Z,6.00
2023-04-21T22:53:26.379Z,6.90
2023-04-21T22:55:53.994Z,5.40
2023-04-21T22:58:22.060Z,8.93
2023-04-21T23:00:51.122Z,7.90
2023-04-21T23:03:19.340Z,7.40
2023-04-21T23:05:46.918Z,7.20
2023-04-21T23:08:14.402Z,5.70
2023-04-21T23:10:41.926Z,7.47
2023-04-21T23:13:09.556Z,6.10
2023-04-21T23:15:37.090Z,4.97
2023-04-21T23:18:06.117Z,5.73
2023-04-21T23:20:33.766Z,6.83
2023-04-21T23:23:01.262Z,5.13
2023-04-21T23:25:28.715Z,5.10
2023-04-21T23:27:56.380Z,7.00
2023-04-21T23:30:23.819Z,8.30
2023-04-21T23:32:51.300Z,6.80
2023-04-21T23:35:20.147Z,9.40
2023-04-21T23:37:48.476Z,7.23
2023-04-21T23:40:16.007Z,10.50
2023-04-21T23:42:47.084Z,6.97
2023-04-21T23:45:15.194Z,6.00
2023-04-21T23:47:42.686Z,7.80
2023-04-21T23:50:11.283Z,8.00
2023-04-21T23:52:41.974Z,7.17
2023-04-21T23:55:11.739Z,6.10
2023-04-21T23:57:39.246Z,7.87
